Time;durP1;ratioP1;P1;durP2;ratioP2;P2;SDS_P1;SDS_P2;PMS_P1;PMS_P2;Temp;Humidity;BMP_temperature;BMP_pressure;BME280_temperature;BME280_humidity;BME280_pressure;Samples;Min_cycle;Max_cycle;Signal;HPM_P1;HPM_P2
2022/08/20 00:00:21;;;;;;;3.7;2;;;;;;;;;;;;;-77
2022/08/20 00:01:32;;;;;;;;;;;;;;;19.94;60.35645;101641;;;;-75
2022/08/20 00:06:32;;;;;;;;;;;;;;;19.92;60.18359;101642.1;;;;-75
2022/08/20 00:11:32;;;;;;;;;;;;;;;19.91;60.20605;101637.8;;;;-76
2022/08/20 00:16:33;;;;;;;;;;;;;;;19.9;60.21484;101639.7;;;;-75
2022/08/20 00:21:32;;;;;;;;;;;;;;;19.92;60.10547;101638.2;;;;-71
2022/08/20 00:26:31;;;;;;;;;;;;;;;19.9;60.2041;101639.7;;;;-71
2022/08/20 00:30:22;;;;;;;4.3;1.7;;;;;;;;;;;;;-75
2022/08/20 00:31:31;;;;;;;;;;;;;;;19.9;60.24902;101643.4;;;;-74
2022/08/20 00:36:32;;;;;;;;;;;;;;;19.87;60.12012;101650.5;;;;-76
2022/08/20 00:41:32;;;;;;;;;;;;;;;19.86;60.1416;101654.2;;;;-76
2022/08/20 00:46:32;;;;;;;;;;;;;;;19.85;60.03711;101654.2;;;;-75
2022/08/20 00:51:35;;;;;;;;;;;;;;;19.84;60.03711;101648.8;;;;-75
2022/08/20 00:56:33;;;;;;;;;;;;;;;19.82;60.02246;101654.9;;;;-75
2022/08/20 01:00:27;;;;;;;4.5;1.8;;;;;;;;;;;;;-76
2022/08/20 01:01:33;;;;;;;;;;;;;;;19.81;60.07617;101653.2;;;;-77
2022/08/20 01:06:34;;;;;;;;;;;;;;;19.79;60.05273;101653.2;;;;-75
2022/08/20 01:11:34;;;;;;;;;;;;;;;19.74;59.93164;101648.4;;;;-74
2022/08/20 01:16:34;;;;;;;;;;;;;;;19.71;60.04102;101649.7;;;;-75
2022/08/20 01:21:33;;;;;;;;;;;;;;;19.67;60.02539;101645.1;;;;-75
2022/08/20 01:26:34;;;;;;;;;;;;;;;19.65;60.02148;101643.6;;;;-76
2022/08/20 01:30:29;;;;;;;3.5;1.7;;;;;;;;;;;;;-75
2022/08/20 01:31:33;;;;;;;;;;;;;;;19.57;60.0459;101655.4;;;;-75
2022/08/20 01:36:33;;;;;;;;;;;;;;;19.49;59.95605;101650.4;;;;-75
2022/08/20 01:41:46;;;;;;;;;;;;;;;19.45;60.14355;101656.1;;;;-75
2022/08/20 01:46:35;;;;;;;;;;;;;;;19.39;60.04395;101655;;;;-74
2022/08/20 01:51:32;;;;;;;;;;;;;;;19.37;60.24512;101653.6;;;;-76
2022/08/20 01:56:33;;;;;;;;;;;;;;;19.32;60.27246;101656.7;;;;-77
2022/08/20 02:00:34;;;;;;;3.6;1.8;;;;;;;;;;;;;-74
2022/08/20 02:01:33;;;;;;;;;;;;;;;19.26;60.26563;101653.5;;;;-76
2022/08/20 02:06:33;;;;;;;;;;;;;;;19.22;60.31543;101658.3;;;;-76
2022/08/20 02:11:33;;;;;;;;;;;;;;;19.16;60.36523;101661.2;;;;-76
2022/08/20 02:16:33;;;;;;;;;;;;;;;19.13;60.51953;101662;;;;-77
2022/08/20 02:21:34;;;;;;;;;;;;;;;19.11;60.51563;101666.7;;;;-76
2022/08/20 02:26:34;;;;;;;;;;;;;;;19.08;60.52441;101667.9;;;;-75
2022/08/20 02:30:35;;;;;;;4.5;2;;;;;;;;;;;;;-77
2022/08/20 02:31:31;;;;;;;;;;;;;;;19.05;60.54297;101664.9;;;;-75
2022/08/20 02:36:32;;;;;;;;;;;;;;;19.03;60.57324;101665.5;;;;-75
2022/08/20 02:41:31;;;;;;;;;;;;;;;18.98;60.58984;101670.3;;;;-77
2022/08/20 02:46:31;;;;;;;;;;;;;;;18.89;60.68945;101671.1;;;;-75
2022/08/20 02:51:32;;;;;;;;;;;;;;;18.79;60.71191;101676.1;;;;-76
2022/08/20 02:56:31;;;;;;;;;;;;;;;18.71;60.85938;101670.9;;;;-76
2022/08/20 03:00:36;;;;;;;3.3;1.9;;;;;;;;;;;;;-75
2022/08/20 03:01:31;;;;;;;;;;;;;;;18.62;60.97266;101667.3;;;;-75
2022/08/20 03:06:32;;;;;;;;;;;;;;;18.55;61.16504;101666.6;;;;-75
2022/08/20 03:11:32;;;;;;;;;;;;;;;18.45;61.37988;101668.3;;;;-76
2022/08/20 03:16:31;;;;;;;;;;;;;;;18.41;61.33887;101668.9;;;;-75
2022/08/20 03:21:31;;;;;;;;;;;;;;;18.32;61.46289;101666.8;;;;-76
2022/08/20 03:26:32;;;;;;;;;;;;;;;18.28;61.55957;101669.7;;;;-77
2022/08/20 03:30:39;;;;;;;5.6;2.1;;;;;;;;;;;;;-74
2022/08/20 03:31:31;;;;;;;;;;;;;;;18.19;61.78613;101680.3;;;;-74
2022/08/20 03:36:32;;;;;;;;;;;;;;;18.12;61.86621;101680.3;;;;-75
2022/08/20 03:41:31;;;;;;;;;;;;;;;18.02;61.93164;101678.5;;;;-74
2022/08/20 03:46:32;;;;;;;;;;;;;;;17.94;61.88574;101681.3;;;;-76
2022/08/20 03:51:32;;;;;;;;;;;;;;;17.86;61.94141;101680.6;;;;-78
2022/08/20 03:56:31;;;;;;;;;;;;;;;17.8;62.05859;101684.4;;;;-75
2022/08/20 04:00:42;;;;;;;4.3;1.9;;;;;;;;;;;;;-75
2022/08/20 04:01:31;;;;;;;;;;;;;;;17.71;62;101684.5;;;;-75
2022/08/20 04:06:32;;;;;;;;;;;;;;;17.62;62.24707;101688;;;;-76
2022/08/20 04:11:32;;;;;;;;;;;;;;;17.54;62.24707;101688.8;;;;-75
2022/08/20 04:16:31;;;;;;;;;;;;;;;17.45;62.26953;101690.2;;;;-75
2022/08/20 04:21:32;;;;;;;;;;;;;;;17.38;62.2373;101696.1;;;;-75
2022/08/20 04:26:35;;;;;;;;;;;;;;;17.3;62.36133;101700.1;;;;-75
2022/08/20 04:30:44;;;;;;;3.8;1.7;;;;;;;;;;;;;-76
2022/08/20 04:31:32;;;;;;;;;;;;;;;17.22;62.30566;101702.7;;;;-75
2022/08/20 04:36:32;;;;;;;;;;;;;;;17.18;62.40039;101703.2;;;;-77
2022/08/20 04:41:31;;;;;;;;;;;;;;;17.13;62.37207;101700.9;;;;-75
2022/08/20 04:46:31;;;;;;;;;;;;;;;17.06;62.47461;101705.7;;;;-75
2022/08/20 04:51:32;;;;;;;;;;;;;;;17;62.56836;101714.4;;;;-75
2022/08/20 04:56:33;;;;;;;;;;;;;;;16.93;62.58105;101719.5;;;;-75
2022/08/20 05:00:47;;;;;;;3.9;2;;;;;;;;;;;;;-75
2022/08/20 05:01:32;;;;;;;;;;;;;;;16.87;62.66113;101724.9;;;;-76
2022/08/20 05:06:33;;;;;;;;;;;;;;;16.8;62.52734;101723.9;;;;-76
2022/08/20 05:11:32;;;;;;;;;;;;;;;16.75;62.56641;101729.8;;;;-77
2022/08/20 05:16:36;;;;;;;;;;;;;;;16.71;62.62891;101732.2;;;;-75
2022/08/20 05:21:31;;;;;;;;;;;;;;;16.65;62.62012;101732.9;;;;-76
2022/08/20 05:26:34;;;;;;;;;;;;;;;16.6;62.5459;101736.6;;;;-76
2022/08/20 05:30:49;;;;;;;6.4;2;;;;;;;;;;;;;-75
2022/08/20 05:31:32;;;;;;;;;;;;;;;16.57;62.63086;101738.4;;;;-75
2022/08/20 05:36:31;;;;;;;;;;;;;;;16.55;62.53613;101743.8;;;;-76
2022/08/20 05:41:32;;;;;;;;;;;;;;;16.52;62.48926;101745.6;;;;-74
2022/08/20 05:46:31;;;;;;;;;;;;;;;16.55;62.37988;101749.4;;;;-75
2022/08/20 05:51:32;;;;;;;;;;;;;;;16.71;62.10938;101750.8;;;;-75
2022/08/20 05:56:32;;;;;;;;;;;;;;;17.08;61.52832;101755;;;;-76
2022/08/20 06:00:50;;;;;;;4.3;1.7;;;;;;;;;;;;;-77
2022/08/20 06:01:32;;;;;;;;;;;;;;;17.61;60.65137;101756.3;;;;-75
2022/08/20 06:06:32;;;;;;;;;;;;;;;18.2;59.27148;101756.7;;;;-76
2022/08/20 06:11:32;;;;;;;;;;;;;;;18.78;57.89648;101766.6;;;;-77
2022/08/20 06:16:31;;;;;;;;;;;;;;;19.36;56.56152;101765.5;;;;-76
2022/08/20 06:21:31;;;;;;;;;;;;;;;19.89;55.54883;101757.2;;;;-76
2022/08/20 06:26:33;;;;;;;;;;;;;;;20.33;54.53125;101755.3;;;;-76
2022/08/20 06:30:52;;;;;;;3.4;1.5;;;;;;;;;;;;;-75
2022/08/20 06:31:33;;;;;;;;;;;;;;;20.74;53.93066;101758.6;;;;-76
2022/08/20 06:36:31;;;;;;;;;;;;;;;21.18;52.86426;101755.4;;;;-75
2022/08/20 06:41:32;;;;;;;;;;;;;;;21.52;52.02441;101754;;;;-77
2022/08/20 06:46:31;;;;;;;;;;;;;;;21.87;51.53809;101754;;;;-76
2022/08/20 06:51:32;;;;;;;;;;;;;;;22.18;51.03516;101750.1;;;;-76
2022/08/20 06:56:32;;;;;;;;;;;;;;;22.52;50.45508;101754.3;;;;-75
2022/08/20 07:00:55;;;;;;;4.1;1.5;;;;;;;;;;;;;-76
2022/08/20 07:01:31;;;;;;;;;;;;;;;22.82;50.05273;101757.3;;;;-75
2022/08/20 07:06:32;;;;;;;;;;;;;;;23.13;49.66211;101763;;;;-76
2022/08/20 07:11:33;;;;;;;;;;;;;;;23.5;48.88672;101765.7;;;;-75
2022/08/20 07:16:31;;;;;;;;;;;;;;;23.8;48.35547;101767.7;;;;-75
2022/08/20 07:21:32;;;;;;;;;;;;;;;24.06;48.06055;101768.7;;;;-77
2022/08/20 07:26:31;;;;;;;;;;;;;;;24.32;47.59277;101772;;;;-76
2022/08/20 07:36:33;;;;;;;;;;;;;;;24.9;46.76563;101781.7;;;;-78
2022/08/20 07:41:31;;;;;;;;;;;;;;;25.18;46.37793;101782.5;;;;-77
2022/08/20 07:46:35;;;;;;;;;;;;;;;25.42;46.19434;101787.2;;;;-76
2022/08/20 07:51:31;;;;;;;;;;;;;;;25.66;45.97656;101782.7;;;;-74
2022/08/20 07:56:31;;;;;;;;;;;;;;;25.91;45.90918;101785;;;;-76
2022/08/20 08:01:02;;;;;;;3;1;;;;;;;;;;;;;-76
2022/08/20 08:01:35;;;;;;;;;;;;;;;26.13;45.80469;101790.6;;;;-76
2022/08/20 08:06:35;;;;;;;;;;;;;;;26.42;45.61328;101792;;;;-75
2022/08/20 08:11:32;;;;;;;;;;;;;;;26.75;45.58887;101798.3;;;;-74
2022/08/20 08:16:33;;;;;;;;;;;;;;;27.07;45.19238;101797.4;;;;-76
2022/08/20 08:21:33;;;;;;;;;;;;;;;27.42;44.28613;101797.6;;;;-76
2022/08/20 08:26:31;;;;;;;;;;;;;;;27.76;43.66797;101796.8;;;;-76
2022/08/20 08:31:09;;;;;;;4.5;1.2;;;;;;;;;;;;;-75
2022/08/20 08:31:32;;;;;;;;;;;;;;;27.99;43.48047;101797.8;;;;-75
2022/08/20 08:36:32;;;;;;;;;;;;;;;28.29;42.96191;101806.9;;;;-75
2022/08/20 08:41:33;;;;;;;;;;;;;;;28.61;41.79102;101802.7;;;;-76
2022/08/20 08:46:34;;;;;;;;;;;;;;;28.89;40.98926;101804.5;;;;-75
2022/08/20 08:51:36;;;;;;;;;;;;;;;29.19;40.39746;101807.6;;;;-74
2022/08/20 08:56:33;;;;;;;;;;;;;;;29.42;40.01953;101805.5;;;;-74
2022/08/20 09:01:16;;;;;;;6.6;1.7;;;;;;;;;;;;;-75
2022/08/20 09:01:37;;;;;;;;;;;;;;;29.64;39.81836;101805.2;;;;-74
2022/08/20 09:06:31;;;;;;;;;;;;;;;29.83;39.60059;101810.8;;;;-77
2022/08/20 09:11:32;;;;;;;;;;;;;;;29.98;38.93555;101813.7;;;;-77
2022/08/20 09:16:31;;;;;;;;;;;;;;;30.25;38.7002;101809.1;;;;-75
2022/08/20 09:21:31;;;;;;;;;;;;;;;30.61;38.46191;101815.5;;;;-77
2022/08/20 09:26:32;;;;;;;;;;;;;;;31;37.91992;101811.7;;;;-75
2022/08/20 09:31:17;;;;;;;7.5;1.7;;;;;;;;;;;;;-77
2022/08/20 09:31:31;;;;;;;;;;;;;;;31.18;37.18359;101812.3;;;;-76
2022/08/20 09:36:32;;;;;;;;;;;;;;;31.29;37.02734;101806.6;;;;-75
2022/08/20 09:41:31;;;;;;;;;;;;;;;31.5;36.32813;101811;;;;-75
2022/08/20 09:46:31;;;;;;;;;;;;;;;31.77;35.90234;101807.1;;;;-75
2022/08/20 09:51:31;;;;;;;;;;;;;;;32.01;35.41504;101816.1;;;;-75
2022/08/20 09:56:33;;;;;;;;;;;;;;;32.18;34.72266;101813.3;;;;-78
2022/08/20 10:01:22;;;;;;;6.6;1.2;;;;;;;;;;;;;-76
2022/08/20 10:01:32;;;;;;;;;;;;;;;32.28;34.08203;101806.6;;;;-77
2022/08/20 10:06:31;;;;;;;;;;;;;;;32.44;33.81055;101805.2;;;;-79
2022/08/20 10:11:32;;;;;;;;;;;;;;;32.71;33.1709;101805.2;;;;-78
2022/08/20 10:16:31;;;;;;;;;;;;;;;33;33.10938;101802.1;;;;-77
2022/08/20 10:21:32;;;;;;;;;;;;;;;33.25;33.87109;101804.8;;;;-77
2022/08/20 10:26:31;;;;;;;;;;;;;;;33.52;33.3125;101805.1;;;;-77
2022/08/20 10:31:26;;;;;;;5.3;1.2;;;;;;;;;;;;;-79
2022/08/20 10:31:36;;;;;;;;;;;;;;;33.48;32.65918;101809.3;;;;-77
2022/08/20 10:36:31;;;;;;;;;;;;;;;33.38;33.19629;101804.1;;;;-78
2022/08/20 10:41:31;;;;;;;;;;;;;;;33.33;33.38086;101800.7;;;;-76
2022/08/20 10:46:31;;;;;;;;;;;;;;;33.24;32.99707;101799.6;;;;-75
2022/08/20 10:51:31;;;;;;;;;;;;;;;32.83;32.9668;101804.2;;;;-75
2022/08/20 10:56:34;;;;;;;;;;;;;;;32.38;33.39453;101804.4;;;;-76
2022/08/20 11:01:31;;;;;;;3.7;1.1;;;;;;;;;;;;;-77
2022/08/20 11:01:45;;;;;;;;;;;;;;;32;33.44922;101810.9;;;;-77
2022/08/20 11:06:31;;;;;;;;;;;;;;;31.79;33.96289;101811.3;;;;-75
2022/08/20 11:11:31;;;;;;;;;;;;;;;31.86;34.50977;101803.3;;;;-76
2022/08/20 11:16:32;;;;;;;;;;;;;;;32.11;35.08203;101793.7;;;;-75
2022/08/20 11:21:31;;;;;;;;;;;;;;;32.39;34.5625;101804.6;;;;-75
2022/08/20 11:26:31;;;;;;;;;;;;;;;32.66;34.33496;101804.1;;;;-75
2022/08/20 11:31:31;;;;;;;;;;;;;;;32.94;34.5332;101803.1;;;;-77
2022/08/20 11:31:41;;;;;;;5.3;1.3;;;;;;;;;;;;;-77
2022/08/20 11:36:31;;;;;;;;;;;;;;;33.05;34.80078;101806.2;;;;-75
2022/08/20 11:41:34;;;;;;;;;;;;;;;33.09;34.65039;101805.1;;;;-75
2022/08/20 11:46:31;;;;;;;;;;;;;;;33.06;35.00098;101803.4;;;;-75
2022/08/20 11:51:32;;;;;;;;;;;;;;;33.24;35.08691;101804.2;;;;-76
2022/08/20 11:56:31;;;;;;;;;;;;;;;33.3;35.1377;101803.3;;;;-77
2022/08/20 12:01:35;;;;;;;;;;;;;;;33.1;34.78125;101807.3;;;;-75
2022/08/20 12:01:44;;;;;;;5.2;1.3;;;;;;;;;;;;;-75
2022/08/20 12:06:32;;;;;;;;;;;;;;;33.03;34.58594;101801.3;;;;-77
2022/08/20 12:11:32;;;;;;;;;;;;;;;33.15;34.40723;101800.9;;;;-76
2022/08/20 12:16:31;;;;;;;;;;;;;;;33.3;34.58301;101801.9;;;;-75
2022/08/20 12:21:32;;;;;;;;;;;;;;;33.43;34.27441;101801.5;;;;-76
2022/08/20 12:26:31;;;;;;;;;;;;;;;33.65;34.40918;101797.6;;;;-76
2022/08/20 12:31:33;;;;;;;;;;;;;;;33.88;34.2959;101799;;;;-76
2022/08/20 12:31:49;;;;;;;5.2;1.1;;;;;;;;;;;;;-75
2022/08/20 12:36:33;;;;;;;;;;;;;;;34.03;34.14258;101800.9;;;;-78
2022/08/20 12:41:31;;;;;;;;;;;;;;;34.09;34.20605;101793.9;;;;-76
2022/08/20 12:46:31;;;;;;;;;;;;;;;34.15;34.06836;101791;;;;-77
2022/08/20 12:51:31;;;;;;;;;;;;;;;33.99;34.42285;101798.4;;;;-76
2022/08/20 12:56:32;;;;;;;;;;;;;;;33.81;34.33789;101793.3;;;;-76
2022/08/20 13:01:31;;;;;;;;;;;;;;;33.73;33.58691;101800.6;;;;-77
2022/08/20 13:01:54;;;;;;;4.1;1.2;;;;;;;;;;;;;-76
2022/08/20 13:06:31;;;;;;;;;;;;;;;33.63;33.875;101788.3;;;;-76
2022/08/20 13:11:32;;;;;;;;;;;;;;;33.63;33.78125;101792.6;;;;-75
2022/08/20 13:16:31;;;;;;;;;;;;;;;33.65;33.81836;101783.9;;;;-76
2022/08/20 13:21:31;;;;;;;;;;;;;;;33.67;33.87891;101787.9;;;;-76
2022/08/20 13:26:31;;;;;;;;;;;;;;;33.64;33.61719;101790.4;;;;-77
2022/08/20 13:31:35;;;;;;;;;;;;;;;33.67;33.54785;101787.4;;;;-76
2022/08/20 13:31:59;;;;;;;4;1.2;;;;;;;;;;;;;-78
2022/08/20 13:36:31;;;;;;;;;;;;;;;33.7;33.49121;101779.2;;;;-77
2022/08/20 13:41:31;;;;;;;;;;;;;;;33.58;33.28125;101785.3;;;;-75
2022/08/20 13:46:31;;;;;;;;;;;;;;;33.48;32.79004;101782;;;;-76
2022/08/20 13:51:31;;;;;;;;;;;;;;;33.43;33.25781;101777.3;;;;-77
2022/08/20 13:56:31;;;;;;;;;;;;;;;33.46;33.1543;101784.6;;;;-74
2022/08/20 14:01:31;;;;;;;;;;;;;;;33.57;32.86719;101777.8;;;;-75
2022/08/20 14:02:05;;;;;;;4.9;1.3;;;;;;;;;;;;;-75
2022/08/20 14:06:31;;;;;;;;;;;;;;;33.66;32.9082;101782;;;;-75
2022/08/20 14:11:31;;;;;;;;;;;;;;;33.68;32.98145;101782.2;;;;-75
2022/08/20 14:16:31;;;;;;;;;;;;;;;33.73;32.90137;101787.5;;;;-75
2022/08/20 14:21:31;;;;;;;;;;;;;;;33.63;33.19043;101785.8;;;;-75
2022/08/20 14:26:31;;;;;;;;;;;;;;;33.45;33.31934;101781.3;;;;-76
2022/08/20 14:31:31;;;;;;;;;;;;;;;33.36;33.51367;101793.5;;;;-76
2022/08/20 14:32:13;;;;;;;6.2;1.3;;;;;;;;;;;;;-75
2022/08/20 14:36:31;;;;;;;;;;;;;;;33.39;33.66895;101791.9;;;;-76
2022/08/20 14:41:32;;;;;;;;;;;;;;;33.36;33.41797;101792.6;;;;-76
2022/08/20 14:46:31;;;;;;;;;;;;;;;33.32;33.55762;101790.2;;;;-76
2022/08/20 14:51:31;;;;;;;;;;;;;;;33.3;33.41406;101790.3;;;;-72
2022/08/20 14:56:31;;;;;;;;;;;;;;;33.26;33.34082;101796.3;;;;-75
2022/08/20 15:01:31;;;;;;;;;;;;;;;33.13;33.70898;101793.5;;;;-76
2022/08/20 15:02:17;;;;;;;4.9;1.2;;;;;;;;;;;;;-75
2022/08/20 15:06:31;;;;;;;;;;;;;;;33.05;33.24316;101791.8;;;;-76
2022/08/20 15:11:31;;;;;;;;;;;;;;;32.88;33.51367;101797.5;;;;-76
2022/08/20 15:16:34;;;;;;;;;;;;;;;32.75;33.29199;101801.5;;;;-76
2022/08/20 15:21:31;;;;;;;;;;;;;;;32.56;33.49023;101798.9;;;;-76
2022/08/20 15:26:32;;;;;;;;;;;;;;;32.44;33.61133;101800.5;;;;-75
2022/08/20 15:31:31;;;;;;;;;;;;;;;32.28;33.45801;101797.7;;;;-75
2022/08/20 15:32:26;;;;;;;2.6;1.1;;;;;;;;;;;;;-76
2022/08/20 15:36:31;;;;;;;;;;;;;;;32.15;33.36621;101801;;;;-75
2022/08/20 15:41:33;;;;;;;;;;;;;;;31.98;33.69434;101806;;;;-75
2022/08/20 15:46:32;;;;;;;;;;;;;;;31.83;33.93066;101807.7;;;;-75
2022/08/20 15:51:36;;;;;;;;;;;;;;;31.68;33.71973;101811.6;;;;-75
2022/08/20 15:56:49;;;;;;;;;;;;;;;31.52;34.08398;101816.6;;;;-76
2022/08/20 16:01:35;;;;;;;;;;;;;;;31.37;33.97852;101823.1;;;;-76
2022/08/20 16:02:36;;;;;;;2.7;1;;;;;;;;;;;;;-76
2022/08/20 16:06:33;;;;;;;;;;;;;;;31.23;34.10938;101813.3;;;;-76
2022/08/20 16:11:39;;;;;;;;;;;;;;;31.07;34.40332;101811.3;;;;-74
2022/08/20 16:16:34;;;;;;;;;;;;;;;30.87;34.7168;101813.8;;;;-76
2022/08/20 16:21:35;;;;;;;;;;;;;;;30.71;34.77539;101807.6;;;;-76
2022/08/20 16:26:56;;;;;;;;;;;;;;;30.5;35.11035;101810;;;;-76
2022/08/20 16:31:35;;;;;;;;;;;;;;;30.35;35.18164;101815;;;;-75
2022/08/20 16:32:40;;;;;;;3.7;1.1;;;;;;;;;;;;;-75
2022/08/20 16:36:38;;;;;;;;;;;;;;;30.21;35.32324;101809;;;;-76
2022/08/20 16:41:33;;;;;;;;;;;;;;;30.05;35.42773;101815.2;;;;-75
2022/08/20 16:46:34;;;;;;;;;;;;;;;29.89;35.67285;101813.3;;;;-74
2022/08/20 16:51:36;;;;;;;;;;;;;;;29.65;35.87598;101811.7;;;;-75
2022/08/20 16:56:39;;;;;;;;;;;;;;;29.46;36.11816;101812.9;;;;-74
2022/08/20 17:01:32;;;;;;;;;;;;;;;29.24;36.26465;101809;;;;-75
2022/08/20 17:02:37;;;;;;;3.2;1;;;;;;;;;;;;;-74
2022/08/20 17:06:35;;;;;;;;;;;;;;;29.06;36.32031;101814.2;;;;-76
2022/08/20 17:11:34;;;;;;;;;;;;;;;28.83;36.59473;101811.7;;;;-75
2022/08/20 17:16:35;;;;;;;;;;;;;;;28.61;36.85742;101806.5;;;;-76
2022/08/20 17:21:36;;;;;;;;;;;;;;;28.42;37.09766;101806.2;;;;-75
2022/08/20 17:26:34;;;;;;;;;;;;;;;28.21;37.18555;101808.7;;;;-76
2022/08/20 17:31:42;;;;;;;;;;;;;;;27.95;37.17578;101805.3;;;;-75
2022/08/20 17:32:49;;;;;;;2.6;1;;;;;;;;;;;;;-76
2022/08/20 17:36:32;;;;;;;;;;;;;;;27.7;37.62207;101806.7;;;;-74
2022/08/20 17:41:34;;;;;;;;;;;;;;;27.47;37.82422;101809.2;;;;-74
2022/08/20 17:46:33;;;;;;;;;;;;;;;27.25;38.01465;101817;;;;-75
2022/08/20 17:51:35;;;;;;;;;;;;;;;27.02;37.94824;101813.2;;;;-76
2022/08/20 17:56:34;;;;;;;;;;;;;;;26.78;38.30078;101808.9;;;;-75
2022/08/20 18:01:31;;;;;;;;;;;;;;;26.53;38.52344;101808.8;;;;-75
2022/08/20 18:02:46;;;;;;;3;1.2;;;;;;;;;;;;;-76
2022/08/20 18:06:36;;;;;;;;;;;;;;;26.26;38.7666;101809.6;;;;-75
2022/08/20 18:11:35;;;;;;;;;;;;;;;25.97;39.0791;101801.7;;;;-76
2022/08/20 18:16:33;;;;;;;;;;;;;;;25.7;39.3457;101803.6;;;;-76
2022/08/20 18:21:52;;;;;;;;;;;;;;;25.42;39.48242;101805.6;;;;-74
2022/08/20 18:26:35;;;;;;;;;;;;;;;25.12;39.9082;101811.6;;;;-76
2022/08/20 18:31:34;;;;;;;;;;;;;;;24.82;40.04297;101811.1;;;;-75
2022/08/20 18:32:51;;;;;;;4.2;1.2;;;;;;;;;;;;;-76
2022/08/20 18:36:32;;;;;;;;;;;;;;;24.53;40.04102;101812.6;;;;-76
2022/08/20 18:41:33;;;;;;;;;;;;;;;24.22;40.66016;101819.4;;;;-75
2022/08/20 18:46:31;;;;;;;;;;;;;;;23.93;41.1416;101819.3;;;;-75
2022/08/20 18:51:35;;;;;;;;;;;;;;;23.64;41.65625;101824.8;;;;-75
2022/08/20 18:56:39;;;;;;;;;;;;;;;23.38;41.98926;101831.3;;;;-74
2022/08/20 19:01:34;;;;;;;;;;;;;;;23.11;42.54004;101834.3;;;;-75
2022/08/20 19:02:59;;;;;;;4.4;1.2;;;;;;;;;;;;;-76
2022/08/20 19:06:41;;;;;;;;;;;;;;;22.85;42.95215;101826.8;;;;-76
2022/08/20 19:11:43;;;;;;;;;;;;;;;22.6;43.46875;101828.9;;;;-74
2022/08/20 19:16:37;;;;;;;;;;;;;;;22.35;44.06445;101827.6;;;;-75
2022/08/20 19:21:34;;;;;;;;;;;;;;;22.13;44.50293;101824.8;;;;-75
2022/08/20 19:26:32;;;;;;;;;;;;;;;21.9;44.99609;101823;;;;-74
2022/08/20 19:31:32;;;;;;;;;;;;;;;21.69;45.8916;101824.7;;;;-74
2022/08/20 19:32:58;;;;;;;4.4;1.2;;;;;;;;;;;;;-73
2022/08/20 19:36:31;;;;;;;;;;;;;;;21.5;45.90723;101819.4;;;;-75
2022/08/20 19:41:33;;;;;;;;;;;;;;;21.35;46.31543;101817.9;;;;-74
2022/08/20 19:46:34;;;;;;;;;;;;;;;21.2;46.48242;101824.3;;;;-75
2022/08/20 19:51:38;;;;;;;;;;;;;;;21.04;46.89063;101826.9;;;;-75
2022/08/20 19:56:31;;;;;;;;;;;;;;;20.91;47.4248;101821;;;;-75
2022/08/20 20:01:31;;;;;;;;;;;;;;;20.74;47.5;101815.4;;;;-74
2022/08/20 20:03:10;;;;;;;3;1.1;;;;;;;;;;;;;-75
2022/08/20 20:06:32;;;;;;;;;;;;;;;20.62;47.7832;101815.5;;;;-74
2022/08/20 20:11:34;;;;;;;;;;;;;;;20.5;47.87402;101811.5;;;;-75
2022/08/20 20:16:32;;;;;;;;;;;;;;;20.37;48.12305;101808.8;;;;-74
2022/08/20 20:21:39;;;;;;;;;;;;;;;20.26;48.33789;101807.4;;;;-74
2022/08/20 20:26:35;;;;;;;;;;;;;;;20.15;48.55469;101802.9;;;;-75
2022/08/20 20:31:33;;;;;;;;;;;;;;;20.05;48.6123;101798.3;;;;-75
2022/08/20 20:33:05;;;;;;;4.7;1.4;;;;;;;;;;;;;-76
2022/08/20 20:36:39;;;;;;;;;;;;;;;19.97;49.04883;101796.6;;;;-76
2022/08/20 20:41:32;;;;;;;;;;;;;;;19.88;49.17676;101799.3;;;;-75
2022/08/20 20:46:32;;;;;;;;;;;;;;;19.79;49.22363;101797.8;;;;-73
2022/08/20 20:51:32;;;;;;;;;;;;;;;19.7;49.55566;101792.5;;;;-74
2022/08/20 20:56:36;;;;;;;;;;;;;;;19.59;49.45215;101790.1;;;;-75
2022/08/20 21:01:31;;;;;;;;;;;;;;;19.52;49.64941;101789.2;;;;-76
2022/08/20 21:03:07;;;;;;;3.8;1.3;;;;;;;;;;;;;-74
2022/08/20 21:06:31;;;;;;;;;;;;;;;19.44;49.68555;101789.1;;;;-74
2022/08/20 21:11:31;;;;;;;;;;;;;;;19.38;49.67969;101783.1;;;;-74
2022/08/20 21:16:32;;;;;;;;;;;;;;;19.28;49.75879;101788.2;;;;-74
2022/08/20 21:21:31;;;;;;;;;;;;;;;19.21;49.93359;101797;;;;-75
2022/08/20 21:26:31;;;;;;;;;;;;;;;19.16;50.17773;101796.5;;;;-76
2022/08/20 21:31:33;;;;;;;;;;;;;;;19.07;50.25977;101789.6;;;;-73
2022/08/20 21:33:09;;;;;;;5.3;1.9;;;;;;;;;;;;;-74
2022/08/20 21:36:31;;;;;;;;;;;;;;;18.98;50.5791;101793.3;;;;-75
2022/08/20 21:41:31;;;;;;;;;;;;;;;18.91;51.01465;101797.1;;;;-73
2022/08/20 21:46:31;;;;;;;;;;;;;;;18.83;51.30078;101789.7;;;;-74
2022/08/20 21:51:31;;;;;;;;;;;;;;;18.77;51.08008;101784.3;;;;-75
2022/08/20 21:56:32;;;;;;;;;;;;;;;18.71;51.01465;101782.1;;;;-74
2022/08/20 22:01:31;;;;;;;;;;;;;;;18.63;51.61914;101775.6;;;;-74
2022/08/20 22:03:11;;;;;;;4.4;1.8;;;;;;;;;;;;;-75
2022/08/20 22:06:31;;;;;;;;;;;;;;;18.58;51.38672;101776;;;;-75
2022/08/20 22:11:32;;;;;;;;;;;;;;;18.55;51.20117;101774.3;;;;-74
2022/08/20 22:16:31;;;;;;;;;;;;;;;18.49;51.47754;101773.9;;;;-76
2022/08/20 22:21:33;;;;;;;;;;;;;;;18.46;51.80371;101771.3;;;;-74
2022/08/20 22:26:32;;;;;;;;;;;;;;;18.37;52.6582;101766.8;;;;-75
2022/08/20 22:31:32;;;;;;;;;;;;;;;18.34;52.58594;101752.8;;;;-75
2022/08/20 22:33:22;;;;;;;7.5;1.8;;;;;;;;;;;;;-75
2022/08/20 22:36:31;;;;;;;;;;;;;;;18.29;52.8291;101749.9;;;;-75
2022/08/20 22:41:31;;;;;;;;;;;;;;;18.27;53.14355;101750.9;;;;-74
2022/08/20 22:46:35;;;;;;;;;;;;;;;18.22;52.92383;101747.2;;;;-76
2022/08/20 22:51:34;;;;;;;;;;;;;;;18.18;53.28125;101744.1;;;;-75
2022/08/20 22:56:31;;;;;;;;;;;;;;;18.13;53.37695;101741.2;;;;-76
2022/08/20 23:01:31;;;;;;;;;;;;;;;18.08;52.71289;101740.9;;;;-76
2022/08/20 23:03:17;;;;;;;3.9;1.7;;;;;;;;;;;;;-75
2022/08/20 23:06:32;;;;;;;;;;;;;;;18.05;53.10742;101737.4;;;;-75
2022/08/20 23:11:31;;;;;;;;;;;;;;;17.99;53.26953;101735.1;;;;-75
2022/08/20 23:16:31;;;;;;;;;;;;;;;17.97;53.4834;101734.8;;;;-75
2022/08/20 23:21:32;;;;;;;;;;;;;;;17.95;53.21973;101733.7;;;;-74
2022/08/20 23:26:31;;;;;;;;;;;;;;;17.9;53.10059;101729.3;;;;-73
2022/08/20 23:31:31;;;;;;;;;;;;;;;17.85;53.59375;101728.3;;;;-72
2022/08/20 23:33:18;;;;;;;4.6;1.7;;;;;;;;;;;;;-75
2022/08/20 23:36:31;;;;;;;;;;;;;;;17.81;53.93945;101732;;;;-76
2022/08/20 23:41:31;;;;;;;;;;;;;;;17.78;53.70898;101734.1;;;;-75
2022/08/20 23:46:32;;;;;;;;;;;;;;;17.74;53.75;101723.1;;;;-76
2022/08/20 23:51:32;;;;;;;;;;;;;;;17.72;53.76953;101727.4;;;;-75
2022/08/20 23:56:31;;;;;;;;;;;;;;;17.7;53.38184;101725.6;;;;-76
